Terminal Aerodrome Forecast
Issued by NWS Greer, SC

Home | Current Version | Previous Version | Text Only | Print | Product List | Glossary On
Versions: 1 2 3 4 5 6 7 8 9 10 11 12 13 14 15 16 17 18 19 20 21 22 23 24 25 26 27 28 29 30 31 32 33 34 35 36 37 38 39 40 41 42 43 44 45
000
FTUS42 KGSP 222336
TAFAVL
TAF
KAVL 222336Z 2300/2324 33006KT P6SM SCT035 BKN090
     FM230300 VRB02KT 6SM BR VCSH OVC050
     FM230700 VRB02KT 3SM BR VCSH OVC015
     FM231000 35005KT 3SM -SHRA BR OVC007
     FM231500 34009KT 4SM -SHRA OVC008 PROB30 2315/2320 2SM TSRA
      OVC007CB
     FM232000 33007KT 6SM -SHRA OVC020=

USA.gov is the U.S. government's official web portal to all federal, state and local government web resources and services.